ENSK

Stokmarknes Skagen Airport

Hadsel, Norway
METAR ENSK 241950Z 11008KT 9999 -RA FEW010 SCT020 BKN025 04/02 Q0987
Observed Flight Rules
Apr-24 @ 19:50 UTC (5 hours ago) Marginal Visual Flight Rules
Wind Visibility Clouds Conditions
110° at 8 knots 10,000+ meters
  • Few at 1,000' AGL
  • Scattered at 2,000' AGL
  • Broken at 2,500' AGL
  • Light Rain
Temperatures Readings
Current 4°C / 39°F
Dewpoint 2°C / 36°F
Humidity 87%
Altimeter 29.14" Hg
Pressure 987 hPa
Elevation 3
METAR ENSK 241950Z 11008KT 9999 -RA FEW010 SCT020 BKN025 04/02 Q0987
Observed Flight Rules
Apr-24 @ 19:50 UTC
(5 hours ago)
MVFR
Wind Visibility
110° at 8 knots 10,000+ meters
Clouds
  • Few at 1,000' AGL
  • Scattered at 2,000' AGL
  • Broken at 2,500' AGL
Conditions
  • Light Rain
Temperature Dewpoint
4°C / 39°F 2°C / 36°F
Humidity Altimeter Pressure
87% 29.14" Hg 987 hPa